sensor_id;sensor_type;location;lat;lon;timestamp;temperature;humidity
54192;DHT22;40101;53.002;6.488;2023-01-24T00:00:06;3.00;99.90
54192;DHT22;40101;53.002;6.488;2023-01-24T00:02:32;3.00;99.90
54192;DHT22;40101;53.002;6.488;2023-01-24T00:04:58;3.00;99.90
54192;DHT22;40101;53.002;6.488;2023-01-24T00:07:24;3.10;99.90
54192;DHT22;40101;53.002;6.488;2023-01-24T00:09:49;3.00;99.90
54192;DHT22;40101;53.002;6.488;2023-01-24T00:12:15;3.00;99.90
54192;DHT22;40101;53.002;6.488;2023-01-24T00:14:41;3.00;99.90
54192;DHT22;40101;53.002;6.488;2023-01-24T00:17:06;3.00;99.90
54192;DHT22;40101;53.002;6.488;2023-01-24T00:19:33;3.00;99.90
54192;DHT22;40101;53.002;6.488;2023-01-24T00:22:01;3.00;99.90
54192;DHT22;40101;53.002;6.488;2023-01-24T00:24:27;3.00;99.90
54192;DHT22;40101;53.002;6.488;2023-01-24T00:26:54;3.00;99.90
54192;DHT22;40101;53.002;6.488;2023-01-24T00:29:19;3.00;99.90
54192;DHT22;40101;53.002;6.488;2023-01-24T00:31:45;3.00;99.90
54192;DHT22;40101;53.002;6.488;2023-01-24T00:34:11;3.00;99.90
54192;DHT22;40101;53.002;6.488;2023-01-24T00:36:36;2.90;99.90
54192;DHT22;40101;53.002;6.488;2023-01-24T00:39:02;3.00;99.90
54192;DHT22;40101;53.002;6.488;2023-01-24T00:41:28;2.90;99.90
54192;DHT22;40101;53.002;6.488;2023-01-24T00:43:54;2.90;99.90
54192;DHT22;40101;53.002;6.488;2023-01-24T00:46:19;2.90;99.90
54192;DHT22;40101;53.002;6.488;2023-01-24T00:48:45;2.90;99.90
54192;DHT22;40101;53.002;6.488;2023-01-24T00:51:11;2.90;99.90
54192;DHT22;40101;53.002;6.488;2023-01-24T00:53:36;2.90;99.90
54192;DHT22;40101;53.002;6.488;2023-01-24T00:56:02;2.90;99.90
54192;DHT22;40101;53.002;6.488;2023-01-24T00:58:28;2.90;99.90
54192;DHT22;40101;53.002;6.488;2023-01-24T01:00:57;2.90;99.90
54192;DHT22;40101;53.002;6.488;2023-01-24T01:03:25;2.90;99.90
54192;DHT22;40101;53.002;6.488;2023-01-24T01:06:01;2.90;99.90
54192;DHT22;40101;53.002;6.488;2023-01-24T01:08:27;2.90;99.90
54192;DHT22;40101;53.002;6.488;2023-01-24T01:10:53;3.00;99.90
54192;DHT22;40101;53.002;6.488;2023-01-24T01:13:18;3.00;99.90
54192;DHT22;40101;53.002;6.488;2023-01-24T01:15:44;2.90;99.90
54192;DHT22;40101;53.002;6.488;2023-01-24T01:18:10;2.90;99.90
54192;DHT22;40101;53.002;6.488;2023-01-24T01:20:36;3.00;99.90
54192;DHT22;40101;53.002;6.488;2023-01-24T01:23:02;2.90;99.90
54192;DHT22;40101;53.002;6.488;2023-01-24T01:25:28;3.00;99.90
54192;DHT22;40101;53.002;6.488;2023-01-24T01:27:53;3.00;99.90
54192;DHT22;40101;53.002;6.488;2023-01-24T01:30:19;3.00;99.90
54192;DHT22;40101;53.002;6.488;2023-01-24T01:32:45;2.90;99.90
54192;DHT22;40101;53.002;6.488;2023-01-24T01:35:11;2.90;99.90
54192;DHT22;40101;53.002;6.488;2023-01-24T01:37:36;2.90;99.90
54192;DHT22;40101;53.002;6.488;2023-01-24T01:40:02;3.00;99.90
54192;DHT22;40101;53.002;6.488;2023-01-24T01:45:33;3.00;99.90
54192;DHT22;40101;53.002;6.488;2023-01-24T01:48:00;3.00;99.90
54192;DHT22;40101;53.002;6.488;2023-01-24T01:50:34;3.00;99.90
54192;DHT22;40101;53.002;6.488;2023-01-24T01:53:02;3.00;99.90
54192;DHT22;40101;53.002;6.488;2023-01-24T01:55:31;3.00;99.90
54192;DHT22;40101;53.002;6.488;2023-01-24T01:58:00;3.00;99.90
54192;DHT22;40101;53.002;6.488;2023-01-24T02:00:26;3.00;99.90
54192;DHT22;40101;53.002;6.488;2023-01-24T02:02:57;3.00;99.90
54192;DHT22;40101;53.002;6.488;2023-01-24T02:05:45;3.00;99.90
54192;DHT22;40101;53.002;6.488;2023-01-24T02:08:13;2.90;99.90
54192;DHT22;40101;53.002;6.488;2023-01-24T02:10:40;2.90;99.90
54192;DHT22;40101;53.002;6.488;2023-01-24T02:13:25;3.00;99.90
54192;DHT22;40101;53.002;6.488;2023-01-24T02:15:53;2.70;99.90
54192;DHT22;40101;53.002;6.488;2023-01-24T02:18:31;3.40;99.90
54192;DHT22;40101;53.002;6.488;2023-01-24T02:20:58;2.90;99.90
54192;DHT22;40101;53.002;6.488;2023-01-24T02:26:16;2.90;99.90
54192;DHT22;40101;53.002;6.488;2023-01-24T02:28:46;2.90;99.90
54192;DHT22;40101;53.002;6.488;2023-01-24T02:31:13;2.90;99.90
54192;DHT22;40101;53.002;6.488;2023-01-24T02:33:39;3.20;99.90
54192;DHT22;40101;53.002;6.488;2023-01-24T02:36:21;2.90;99.90
54192;DHT22;40101;53.002;6.488;2023-01-24T02:39:02;2.90;99.90
54192;DHT22;40101;53.002;6.488;2023-01-24T02:42:16;2.90;99.90
54192;DHT22;40101;53.002;6.488;2023-01-24T02:47:17;2.90;99.90
54192;DHT22;40101;53.002;6.488;2023-01-24T02:49:43;2.90;99.90
54192;DHT22;40101;53.002;6.488;2023-01-24T02:52:09;3.10;99.90
54192;DHT22;40101;53.002;6.488;2023-01-24T02:54:53;2.90;99.90
54192;DHT22;40101;53.002;6.488;2023-01-24T02:57:19;3.00;99.90
54192;DHT22;40101;53.002;6.488;2023-01-24T03:00:07;2.90;99.90
54192;DHT22;40101;53.002;6.488;2023-01-24T03:02:33;3.00;99.90
54192;DHT22;40101;53.002;6.488;2023-01-24T03:04:59;3.00;99.90
54192;DHT22;40101;53.002;6.488;2023-01-24T03:07:25;3.00;99.90
54192;DHT22;40101;53.002;6.488;2023-01-24T03:09:50;3.00;99.90
54192;DHT22;40101;53.002;6.488;2023-01-24T03:12:16;3.00;99.90
54192;DHT22;40101;53.002;6.488;2023-01-24T03:15:00;3.00;99.90
54192;DHT22;40101;53.002;6.488;2023-01-24T03:17:44;3.40;99.90
54192;DHT22;40101;53.002;6.488;2023-01-24T03:20:29;4.00;99.90
54192;DHT22;40101;53.002;6.488;2023-01-24T03:23:13;3.20;99.90
54192;DHT22;40101;53.002;6.488;2023-01-24T03:25:58;3.00;99.90
54192;DHT22;40101;53.002;6.488;2023-01-24T03:28:42;3.00;99.90
54192;DHT22;40101;53.002;6.488;2023-01-24T03:31:27;2.90;99.90
54192;DHT22;40101;53.002;6.488;2023-01-24T03:34:11;3.00;99.90
54192;DHT22;40101;53.002;6.488;2023-01-24T03:36:55;3.00;99.90
54192;DHT22;40101;53.002;6.488;2023-01-24T03:39:21;3.00;99.90
54192;DHT22;40101;53.002;6.488;2023-01-24T03:42:05;3.00;99.90
54192;DHT22;40101;53.002;6.488;2023-01-24T03:44:31;3.10;99.90
54192;DHT22;40101;53.002;6.488;2023-01-24T03:46:57;3.10;99.90
54192;DHT22;40101;53.002;6.488;2023-01-24T03:49:22;3.10;99.90
54192;DHT22;40101;53.002;6.488;2023-01-24T03:52:06;3.10;99.90
54192;DHT22;40101;53.002;6.488;2023-01-24T03:54:51;3.00;99.90
54192;DHT22;40101;53.002;6.488;2023-01-24T03:57:17;3.00;99.90
54192;DHT22;40101;53.002;6.488;2023-01-24T03:59:43;3.10;99.90
54192;DHT22;40101;53.002;6.488;2023-01-24T04:02:10;3.10;99.90
54192;DHT22;40101;53.002;6.488;2023-01-24T04:04:35;3.10;99.90
54192;DHT22;40101;53.002;6.488;2023-01-24T04:07:19;3.00;99.90
54192;DHT22;40101;53.002;6.488;2023-01-24T04:09:45;3.00;99.90
54192;DHT22;40101;53.002;6.488;2023-01-24T04:12:11;3.00;99.90
54192;DHT22;40101;53.002;6.488;2023-01-24T04:14:36;3.00;99.90
54192;DHT22;40101;53.002;6.488;2023-01-24T04:17:02;3.00;99.90
54192;DHT22;40101;53.002;6.488;2023-01-24T04:19:28;3.00;99.90
54192;DHT22;40101;53.002;6.488;2023-01-24T04:21:54;3.30;99.90
54192;DHT22;40101;53.002;6.488;2023-01-24T04:24:22;3.00;99.90
54192;DHT22;40101;53.002;6.488;2023-01-24T04:26:48;3.00;99.90
54192;DHT22;40101;53.002;6.488;2023-01-24T04:29:14;3.00;99.90
54192;DHT22;40101;53.002;6.488;2023-01-24T04:31:40;3.10;99.90
54192;DHT22;40101;53.002;6.488;2023-01-24T04:34:05;3.00;99.90
54192;DHT22;40101;53.002;6.488;2023-01-24T04:36:32;3.00;99.90
54192;DHT22;40101;53.002;6.488;2023-01-24T04:38:58;3.00;99.90
54192;DHT22;40101;53.002;6.488;2023-01-24T04:41:23;3.00;99.90
54192;DHT22;40101;53.002;6.488;2023-01-24T04:43:49;3.00;99.90
54192;DHT22;40101;53.002;6.488;2023-01-24T04:46:15;2.90;99.90
54192;DHT22;40101;53.002;6.488;2023-01-24T04:48:40;2.90;99.90
54192;DHT22;40101;53.002;6.488;2023-01-24T04:51:08;3.80;99.90
54192;DHT22;40101;53.002;6.488;2023-01-24T04:53:38;2.90;99.90
54192;DHT22;40101;53.002;6.488;2023-01-24T04:56:04;2.90;99.90
54192;DHT22;40101;53.002;6.488;2023-01-24T04:58:31;2.90;99.90
54192;DHT22;40101;53.002;6.488;2023-01-24T05:00:56;3.60;99.90
54192;DHT22;40101;53.002;6.488;2023-01-24T05:03:22;2.90;99.90
54192;DHT22;40101;53.002;6.488;2023-01-24T05:05:52;2.90;99.90
54192;DHT22;40101;53.002;6.488;2023-01-24T05:08:20;2.90;99.90
54192;DHT22;40101;53.002;6.488;2023-01-24T05:10:46;2.90;99.90
54192;DHT22;40101;53.002;6.488;2023-01-24T05:13:14;2.90;99.90
54192;DHT22;40101;53.002;6.488;2023-01-24T05:15:48;3.70;99.90
54192;DHT22;40101;53.002;6.488;2023-01-24T05:18:15;2.90;99.90
54192;DHT22;40101;53.002;6.488;2023-01-24T05:20:40;2.90;99.90
54192;DHT22;40101;53.002;6.488;2023-01-24T05:23:06;3.60;99.90
54192;DHT22;40101;53.002;6.488;2023-01-24T05:25:32;2.90;99.90
54192;DHT22;40101;53.002;6.488;2023-01-24T05:27:57;2.90;99.90
54192;DHT22;40101;53.002;6.488;2023-01-24T05:30:23;2.90;99.90
54192;DHT22;40101;53.002;6.488;2023-01-24T05:32:49;2.90;99.90
54192;DHT22;40101;53.002;6.488;2023-01-24T05:35:14;2.90;99.90
54192;DHT22;40101;53.002;6.488;2023-01-24T05:37:40;3.00;99.90
54192;DHT22;40101;53.002;6.488;2023-01-24T05:40:06;3.10;99.90
54192;DHT22;40101;53.002;6.488;2023-01-24T05:42:33;2.90;99.90
54192;DHT22;40101;53.002;6.488;2023-01-24T05:44:59;2.90;99.90
54192;DHT22;40101;53.002;6.488;2023-01-24T05:47:24;2.90;99.90
54192;DHT22;40101;53.002;6.488;2023-01-24T05:49:50;2.90;99.90
54192;DHT22;40101;53.002;6.488;2023-01-24T05:52:16;2.90;99.90
54192;DHT22;40101;53.002;6.488;2023-01-24T05:54:47;2.90;99.90
54192;DHT22;40101;53.002;6.488;2023-01-24T05:57:13;2.80;99.90
54192;DHT22;40101;53.002;6.488;2023-01-24T05:59:39;2.80;99.90
54192;DHT22;40101;53.002;6.488;2023-01-24T06:02:04;2.80;99.90
54192;DHT22;40101;53.002;6.488;2023-01-24T06:04:30;2.90;99.90
54192;DHT22;40101;53.002;6.488;2023-01-24T06:06:55;2.80;99.90
54192;DHT22;40101;53.002;6.488;2023-01-24T06:09:21;2.90;99.90
54192;DHT22;40101;53.002;6.488;2023-01-24T06:11:47;2.90;99.90
54192;DHT22;40101;53.002;6.488;2023-01-24T06:14:12;2.80;99.90
54192;DHT22;40101;53.002;6.488;2023-01-24T06:16:38;2.80;99.90
54192;DHT22;40101;53.002;6.488;2023-01-24T06:19:05;2.90;99.90
54192;DHT22;40101;53.002;6.488;2023-01-24T06:21:46;2.80;99.90
54192;DHT22;40101;53.002;6.488;2023-01-24T06:24:21;2.80;99.90
54192;DHT22;40101;53.002;6.488;2023-01-24T06:26:48;2.80;99.90
54192;DHT22;40101;53.002;6.488;2023-01-24T06:29:15;2.80;99.90
54192;DHT22;40101;53.002;6.488;2023-01-24T06:37:06;2.80;99.90
54192;DHT22;40101;53.002;6.488;2023-01-24T06:39:33;2.80;99.90
54192;DHT22;40101;53.002;6.488;2023-01-24T06:42:00;2.80;99.90
54192;DHT22;40101;53.002;6.488;2023-01-24T06:44:26;2.80;99.90
54192;DHT22;40101;53.002;6.488;2023-01-24T06:46:52;2.80;99.90
54192;DHT22;40101;53.002;6.488;2023-01-24T06:49:17;2.80;99.90
54192;DHT22;40101;53.002;6.488;2023-01-24T06:51:51;2.80;99.90
54192;DHT22;40101;53.002;6.488;2023-01-24T06:54:17;2.80;99.90
54192;DHT22;40101;53.002;6.488;2023-01-24T06:56:43;2.80;99.90
54192;DHT22;40101;53.002;6.488;2023-01-24T06:59:09;3.90;99.90
54192;DHT22;40101;53.002;6.488;2023-01-24T07:01:34;2.80;99.90
54192;DHT22;40101;53.002;6.488;2023-01-24T07:04:00;2.80;99.90
54192;DHT22;40101;53.002;6.488;2023-01-24T07:06:26;2.80;99.90
54192;DHT22;40101;53.002;6.488;2023-01-24T07:08:52;2.80;99.90
54192;DHT22;40101;53.002;6.488;2023-01-24T07:11:18;2.80;99.90
54192;DHT22;40101;53.002;6.488;2023-01-24T07:13:44;2.70;99.90
54192;DHT22;40101;53.002;6.488;2023-01-24T07:16:10;2.90;99.90
54192;DHT22;40101;53.002;6.488;2023-01-24T07:18:36;2.90;99.90
54192;DHT22;40101;53.002;6.488;2023-01-24T07:21:08;2.70;99.90
54192;DHT22;40101;53.002;6.488;2023-01-24T07:23:34;2.70;99.90
54192;DHT22;40101;53.002;6.488;2023-01-24T07:26:00;2.70;99.90
54192;DHT22;40101;53.002;6.488;2023-01-24T07:28:29;2.70;99.90
54192;DHT22;40101;53.002;6.488;2023-01-24T07:30:55;2.70;99.90
54192;DHT22;40101;53.002;6.488;2023-01-24T07:33:21;3.00;99.90
54192;DHT22;40101;53.002;6.488;2023-01-24T07:35:48;2.80;99.90
54192;DHT22;40101;53.002;6.488;2023-01-24T07:38:13;3.10;99.90
54192;DHT22;40101;53.002;6.488;2023-01-24T07:40:39;2.70;99.90
54192;DHT22;40101;53.002;6.488;2023-01-24T07:43:05;2.70;99.90
54192;DHT22;40101;53.002;6.488;2023-01-24T07:45:32;2.70;99.90
54192;DHT22;40101;53.002;6.488;2023-01-24T07:48:00;2.70;99.90
54192;DHT22;40101;53.002;6.488;2023-01-24T07:50:27;2.70;99.90
54192;DHT22;40101;53.002;6.488;2023-01-24T07:52:53;2.70;99.90
54192;DHT22;40101;53.002;6.488;2023-01-24T07:55:20;2.70;99.90
54192;DHT22;40101;53.002;6.488;2023-01-24T07:57:46;2.70;99.90
54192;DHT22;40101;53.002;6.488;2023-01-24T08:00:12;2.70;99.90
54192;DHT22;40101;53.002;6.488;2023-01-24T08:02:39;2.60;99.90
54192;DHT22;40101;53.002;6.488;2023-01-24T08:05:05;2.60;99.90
54192;DHT22;40101;53.002;6.488;2023-01-24T08:07:34;2.60;99.90
54192;DHT22;40101;53.002;6.488;2023-01-24T08:10:01;2.70;99.90
54192;DHT22;40101;53.002;6.488;2023-01-24T08:12:26;2.60;99.90
54192;DHT22;40101;53.002;6.488;2023-01-24T08:14:52;2.60;99.90
54192;DHT22;40101;53.002;6.488;2023-01-24T08:17:18;2.60;99.90
54192;DHT22;40101;53.002;6.488;2023-01-24T08:19:43;2.60;99.90
54192;DHT22;40101;53.002;6.488;2023-01-24T08:22:09;2.70;99.90
54192;DHT22;40101;53.002;6.488;2023-01-24T08:24:42;2.70;99.90
54192;DHT22;40101;53.002;6.488;2023-01-24T08:27:13;2.70;99.90
54192;DHT22;40101;53.002;6.488;2023-01-24T08:29:39;2.70;99.90
54192;DHT22;40101;53.002;6.488;2023-01-24T08:32:04;2.60;99.90
54192;DHT22;40101;53.002;6.488;2023-01-24T08:34:30;2.70;99.90
54192;DHT22;40101;53.002;6.488;2023-01-24T08:36:56;2.60;99.90
54192;DHT22;40101;53.002;6.488;2023-01-24T08:39:21;2.60;99.90
54192;DHT22;40101;53.002;6.488;2023-01-24T08:41:47;2.60;99.90
54192;DHT22;40101;53.002;6.488;2023-01-24T08:44:13;2.70;99.90
54192;DHT22;40101;53.002;6.488;2023-01-24T08:46:39;2.70;99.90
54192;DHT22;40101;53.002;6.488;2023-01-24T08:49:04;2.70;99.90
54192;DHT22;40101;53.002;6.488;2023-01-24T08:51:30;2.70;99.90
54192;DHT22;40101;53.002;6.488;2023-01-24T08:53:56;2.70;99.90
54192;DHT22;40101;53.002;6.488;2023-01-24T08:56:21;2.70;99.90
54192;DHT22;40101;53.002;6.488;2023-01-24T08:58:47;2.70;99.90
54192;DHT22;40101;53.002;6.488;2023-01-24T09:01:13;2.70;99.90
54192;DHT22;40101;53.002;6.488;2023-01-24T09:03:38;2.70;99.90
54192;DHT22;40101;53.002;6.488;2023-01-24T09:06:05;2.70;99.90
54192;DHT22;40101;53.002;6.488;2023-01-24T09:08:31;2.70;99.90
54192;DHT22;40101;53.002;6.488;2023-01-24T09:11:01;2.60;99.90
54192;DHT22;40101;53.002;6.488;2023-01-24T09:13:27;2.70;99.90
54192;DHT22;40101;53.002;6.488;2023-01-24T09:15:53;2.70;99.90
54192;DHT22;40101;53.002;6.488;2023-01-24T09:18:18;2.70;99.90
54192;DHT22;40101;53.002;6.488;2023-01-24T09:20:44;2.70;99.90
54192;DHT22;40101;53.002;6.488;2023-01-24T09:23:13;2.70;99.90
54192;DHT22;40101;53.002;6.488;2023-01-24T09:25:41;2.70;99.90
54192;DHT22;40101;53.002;6.488;2023-01-24T09:28:07;2.70;99.90
54192;DHT22;40101;53.002;6.488;2023-01-24T09:30:33;2.70;99.90
54192;DHT22;40101;53.002;6.488;2023-01-24T09:33:03;2.70;99.90
54192;DHT22;40101;53.002;6.488;2023-01-24T09:35:29;2.70;99.90
54192;DHT22;40101;53.002;6.488;2023-01-24T09:37:55;2.80;99.90
54192;DHT22;40101;53.002;6.488;2023-01-24T09:40:29;2.70;99.90
54192;DHT22;40101;53.002;6.488;2023-01-24T09:43:04;2.70;99.90
54192;DHT22;40101;53.002;6.488;2023-01-24T09:45:36;2.70;99.90
54192;DHT22;40101;53.002;6.488;2023-01-24T09:48:10;2.70;99.90
54192;DHT22;40101;53.002;6.488;2023-01-24T09:50:55;2.70;99.90
54192;DHT22;40101;53.002;6.488;2023-01-24T09:55:51;2.70;99.90
54192;DHT22;40101;53.002;6.488;2023-01-24T09:58:34;2.70;99.90
54192;DHT22;40101;53.002;6.488;2023-01-24T10:01:02;2.80;99.90
54192;DHT22;40101;53.002;6.488;2023-01-24T10:03:31;2.80;99.90
54192;DHT22;40101;53.002;6.488;2023-01-24T10:06:00;2.80;99.90
54192;DHT22;40101;53.002;6.488;2023-01-24T10:14:29;2.80;99.90
54192;DHT22;40101;53.002;6.488;2023-01-24T10:23:05;2.80;99.90
54192;DHT22;40101;53.002;6.488;2023-01-24T10:25:50;2.80;99.90
54192;DHT22;40101;53.002;6.488;2023-01-24T10:28:24;2.80;99.90
54192;DHT22;40101;53.002;6.488;2023-01-24T10:31:13;2.80;99.90
54192;DHT22;40101;53.002;6.488;2023-01-24T10:33:46;2.80;99.90
54192;DHT22;40101;53.002;6.488;2023-01-24T10:36:39;2.80;99.90
54192;DHT22;40101;53.002;6.488;2023-01-24T10:39:09;2.80;99.90
54192;DHT22;40101;53.002;6.488;2023-01-24T10:41:36;2.80;99.90
54192;DHT22;40101;53.002;6.488;2023-01-24T10:50:01;2.80;99.90
54192;DHT22;40101;53.002;6.488;2023-01-24T10:52:29;2.90;99.90
54192;DHT22;40101;53.002;6.488;2023-01-24T10:54:56;2.80;99.90
54192;DHT22;40101;53.002;6.488;2023-01-24T10:57:49;2.80;99.90
54192;DHT22;40101;53.002;6.488;2023-01-24T11:00:34;2.80;99.90
54192;DHT22;40101;53.002;6.488;2023-01-24T11:03:09;2.80;99.90
54192;DHT22;40101;53.002;6.488;2023-01-24T11:05:47;2.80;99.90
54192;DHT22;40101;53.002;6.488;2023-01-24T11:08:22;2.80;99.90
54192;DHT22;40101;53.002;6.488;2023-01-24T11:10:56;2.90;99.90
54192;DHT22;40101;53.002;6.488;2023-01-24T11:18:46;2.90;99.90
54192;DHT22;40101;53.002;6.488;2023-01-24T11:21:18;2.90;99.90
54192;DHT22;40101;53.002;6.488;2023-01-24T11:23:44;2.90;99.90
54192;DHT22;40101;53.002;6.488;2023-01-24T11:26:22;2.90;99.90
54192;DHT22;40101;53.002;6.488;2023-01-24T11:28:57;2.90;99.90
54192;DHT22;40101;53.002;6.488;2023-01-24T11:31:38;3.00;99.90
54192;DHT22;40101;53.002;6.488;2023-01-24T11:34:42;2.90;99.90
54192;DHT22;40101;53.002;6.488;2023-01-24T11:40:14;3.00;99.90
54192;DHT22;40101;53.002;6.488;2023-01-24T11:48:11;3.00;99.90
54192;DHT22;40101;53.002;6.488;2023-01-24T11:51:03;3.00;99.90
54192;DHT22;40101;53.002;6.488;2023-01-24T11:57:02;3.00;99.90
54192;DHT22;40101;53.002;6.488;2023-01-24T12:02:53;3.00;99.90
54192;DHT22;40101;53.002;6.488;2023-01-24T12:08:27;3.10;99.90
54192;DHT22;40101;53.002;6.488;2023-01-24T12:21:56;3.10;99.90
54192;DHT22;40101;53.002;6.488;2023-01-24T12:24:35;3.10;99.90
54192;DHT22;40101;53.002;6.488;2023-01-24T12:27:06;3.10;99.90
54192;DHT22;40101;53.002;6.488;2023-01-24T12:29:43;3.10;99.90
54192;DHT22;40101;53.002;6.488;2023-01-24T12:32:27;3.10;99.90
54192;DHT22;40101;53.002;6.488;2023-01-24T12:38:12;3.10;99.90
54192;DHT22;40101;53.002;6.488;2023-01-24T12:40:53;3.10;99.90
54192;DHT22;40101;53.002;6.488;2023-01-24T12:46:38;3.00;99.90
54192;DHT22;40101;53.002;6.488;2023-01-24T12:49:51;3.00;99.90
54192;DHT22;40101;53.002;6.488;2023-01-24T12:55:24;3.10;99.90
54192;DHT22;40101;53.002;6.488;2023-01-24T13:00:22;3.10;99.90
54192;DHT22;40101;53.002;6.488;2023-01-24T13:13:36;3.00;99.90
54192;DHT22;40101;53.002;6.488;2023-01-24T13:24:46;2.90;99.90
54192;DHT22;40101;53.002;6.488;2023-01-24T13:27:36;2.90;99.90
54192;DHT22;40101;53.002;6.488;2023-01-24T13:30:25;2.90;99.90
54192;DHT22;40101;53.002;6.488;2023-01-24T13:32:57;2.90;99.90
54192;DHT22;40101;53.002;6.488;2023-01-24T13:35:24;2.90;99.90
54192;DHT22;40101;53.002;6.488;2023-01-24T13:37:53;2.90;99.90
54192;DHT22;40101;53.002;6.488;2023-01-24T13:40:25;2.90;99.90
54192;DHT22;40101;53.002;6.488;2023-01-24T13:42:57;2.90;99.90
54192;DHT22;40101;53.002;6.488;2023-01-24T13:47:50;2.90;99.90
54192;DHT22;40101;53.002;6.488;2023-01-24T13:50:18;2.90;99.90
54192;DHT22;40101;53.002;6.488;2023-01-24T13:52:48;2.90;99.90
54192;DHT22;40101;53.002;6.488;2023-01-24T14:00:19;2.80;99.90
54192;DHT22;40101;53.002;6.488;2023-01-24T14:05:50;2.80;99.90
54192;DHT22;40101;53.002;6.488;2023-01-24T14:10:46;2.80;99.90
54192;DHT22;40101;53.002;6.488;2023-01-24T14:21:44;2.70;99.90
54192;DHT22;40101;53.002;6.488;2023-01-24T14:24:30;2.60;99.90
54192;DHT22;40101;53.002;6.488;2023-01-24T14:27:04;2.60;99.90
54192;DHT22;40101;53.002;6.488;2023-01-24T14:29:37;2.60;99.90
54192;DHT22;40101;53.002;6.488;2023-01-24T14:32:14;2.60;99.90
54192;DHT22;40101;53.002;6.488;2023-01-24T14:34:44;2.50;99.90
54192;DHT22;40101;53.002;6.488;2023-01-24T14:37:17;2.50;99.90
54192;DHT22;40101;53.002;6.488;2023-01-24T14:39:43;2.50;99.90
54192;DHT22;40101;53.002;6.488;2023-01-24T14:42:13;2.50;99.90
54192;DHT22;40101;53.002;6.488;2023-01-24T14:44:52;2.60;99.90
54192;DHT22;40101;53.002;6.488;2023-01-24T14:47:23;2.50;99.90
54192;DHT22;40101;53.002;6.488;2023-01-24T14:49:57;2.50;99.90
54192;DHT22;40101;53.002;6.488;2023-01-24T14:52:32;2.50;99.90
54192;DHT22;40101;53.002;6.488;2023-01-24T14:57:54;2.50;99.90
54192;DHT22;40101;53.002;6.488;2023-01-24T15:00:22;2.50;99.90
54192;DHT22;40101;53.002;6.488;2023-01-24T15:02:59;2.50;99.90
54192;DHT22;40101;53.002;6.488;2023-01-24T15:05:35;2.50;99.90
54192;DHT22;40101;53.002;6.488;2023-01-24T15:08:03;2.50;99.90
54192;DHT22;40101;53.002;6.488;2023-01-24T15:10:38;2.50;99.90
54192;DHT22;40101;53.002;6.488;2023-01-24T15:13:08;2.40;99.90
54192;DHT22;40101;53.002;6.488;2023-01-24T15:15:34;2.40;99.90
54192;DHT22;40101;53.002;6.488;2023-01-24T15:18:04;2.50;99.90
54192;DHT22;40101;53.002;6.488;2023-01-24T15:20:31;2.40;99.90
54192;DHT22;40101;53.002;6.488;2023-01-24T15:22:58;2.50;99.90
54192;DHT22;40101;53.002;6.488;2023-01-24T15:25:29;2.40;99.90
54192;DHT22;40101;53.002;6.488;2023-01-24T15:27:57;2.40;99.90
54192;DHT22;40101;53.002;6.488;2023-01-24T15:30:24;2.30;99.90
54192;DHT22;40101;53.002;6.488;2023-01-24T15:40:37;2.30;99.90
54192;DHT22;40101;53.002;6.488;2023-01-24T15:43:37;2.30;99.90
54192;DHT22;40101;53.002;6.488;2023-01-24T15:46:37;2.30;99.90
54192;DHT22;40101;53.002;6.488;2023-01-24T15:49:31;2.20;99.90
54192;DHT22;40101;53.002;6.488;2023-01-24T15:52:01;2.20;99.90
54192;DHT22;40101;53.002;6.488;2023-01-24T15:54:28;2.10;99.90
54192;DHT22;40101;53.002;6.488;2023-01-24T15:56:55;2.20;99.90
54192;DHT22;40101;53.002;6.488;2023-01-24T15:59:23;1.80;99.90
54192;DHT22;40101;53.002;6.488;2023-01-24T16:01:49;2.10;99.90
54192;DHT22;40101;53.002;6.488;2023-01-24T16:04:19;2.10;99.90
54192;DHT22;40101;53.002;6.488;2023-01-24T16:06:46;2.10;99.90
54192;DHT22;40101;53.002;6.488;2023-01-24T16:09:12;2.10;99.90
54192;DHT22;40101;53.002;6.488;2023-01-24T16:11:40;2.10;99.90
54192;DHT22;40101;53.002;6.488;2023-01-24T16:14:10;2.10;99.90
54192;DHT22;40101;53.002;6.488;2023-01-24T16:16:37;2.10;99.90
54192;DHT22;40101;53.002;6.488;2023-01-24T16:19:13;2.10;99.90
54192;DHT22;40101;53.002;6.488;2023-01-24T16:21:39;2.10;99.90
54192;DHT22;40101;53.002;6.488;2023-01-24T16:24:05;2.00;99.90
54192;DHT22;40101;53.002;6.488;2023-01-24T16:26:31;2.00;99.90
54192;DHT22;40101;53.002;6.488;2023-01-24T16:28:58;2.00;99.90
54192;DHT22;40101;53.002;6.488;2023-01-24T16:31:23;2.20;99.90
54192;DHT22;40101;53.002;6.488;2023-01-24T16:33:49;2.00;99.90
54192;DHT22;40101;53.002;6.488;2023-01-24T16:36:15;2.00;99.90
54192;DHT22;40101;53.002;6.488;2023-01-24T16:38:42;2.00;99.90
54192;DHT22;40101;53.002;6.488;2023-01-24T16:41:09;1.90;99.90
54192;DHT22;40101;53.002;6.488;2023-01-24T16:43:35;1.90;99.90
54192;DHT22;40101;53.002;6.488;2023-01-24T16:46:01;1.90;99.90
54192;DHT22;40101;53.002;6.488;2023-01-24T16:48:28;1.90;99.90
54192;DHT22;40101;53.002;6.488;2023-01-24T16:50:54;2.90;99.90
54192;DHT22;40101;53.002;6.488;2023-01-24T16:53:20;1.90;99.90
54192;DHT22;40101;53.002;6.488;2023-01-24T16:55:54;1.90;99.90
54192;DHT22;40101;53.002;6.488;2023-01-24T16:58:21;1.90;99.90
54192;DHT22;40101;53.002;6.488;2023-01-24T17:00:46;1.80;99.90
54192;DHT22;40101;53.002;6.488;2023-01-24T17:03:12;1.90;99.90
54192;DHT22;40101;53.002;6.488;2023-01-24T17:05:39;1.80;99.90
54192;DHT22;40101;53.002;6.488;2023-01-24T17:08:05;1.80;99.90
54192;DHT22;40101;53.002;6.488;2023-01-24T17:10:31;1.80;99.90
54192;DHT22;40101;53.002;6.488;2023-01-24T17:12:57;1.80;99.90
54192;DHT22;40101;53.002;6.488;2023-01-24T17:15:22;1.80;99.90
54192;DHT22;40101;53.002;6.488;2023-01-24T17:17:48;1.80;99.90
54192;DHT22;40101;53.002;6.488;2023-01-24T17:20:14;1.80;99.90
54192;DHT22;40101;53.002;6.488;2023-01-24T17:22:40;1.80;99.90
54192;DHT22;40101;53.002;6.488;2023-01-24T17:25:06;1.80;99.90
54192;DHT22;40101;53.002;6.488;2023-01-24T17:27:32;1.70;99.90
54192;DHT22;40101;53.002;6.488;2023-01-24T17:29:58;1.70;99.90
54192;DHT22;40101;53.002;6.488;2023-01-24T17:32:24;1.70;99.90
54192;DHT22;40101;53.002;6.488;2023-01-24T17:34:49;1.70;99.90
54192;DHT22;40101;53.002;6.488;2023-01-24T17:37:15;1.70;99.90
54192;DHT22;40101;53.002;6.488;2023-01-24T17:39:40;1.70;99.90
54192;DHT22;40101;53.002;6.488;2023-01-24T17:42:06;1.60;99.90
54192;DHT22;40101;53.002;6.488;2023-01-24T17:44:32;1.60;99.90
54192;DHT22;40101;53.002;6.488;2023-01-24T17:46:57;1.60;99.90
54192;DHT22;40101;53.002;6.488;2023-01-24T17:49:23;1.60;99.90
54192;DHT22;40101;53.002;6.488;2023-01-24T17:51:49;1.60;99.90
54192;DHT22;40101;53.002;6.488;2023-01-24T17:54:15;1.60;99.90
54192;DHT22;40101;53.002;6.488;2023-01-24T17:56:42;1.60;99.90
54192;DHT22;40101;53.002;6.488;2023-01-24T17:59:08;1.60;99.90
54192;DHT22;40101;53.002;6.488;2023-01-24T18:01:34;1.70;99.90
54192;DHT22;40101;53.002;6.488;2023-01-24T18:04:00;1.70;99.90
54192;DHT22;40101;53.002;6.488;2023-01-24T18:06:25;1.70;99.90
54192;DHT22;40101;53.002;6.488;2023-01-24T18:08:51;1.70;99.90
54192;DHT22;40101;53.002;6.488;2023-01-24T18:11:19;1.70;99.90